createdAt,value
2018-09-15T00:00:56.247Z,2.00
2018-09-15T00:03:25.716Z,1.97
2018-09-15T00:05:54.678Z,1.93
2018-09-15T00:08:23.468Z,2.23
2018-09-15T00:10:52.265Z,1.67
2018-09-15T00:13:22.080Z,1.63
2018-09-15T00:15:51.104Z,2.00
2018-09-15T00:18:19.922Z,1.70
2018-09-15T00:20:48.721Z,1.80
2018-09-15T00:23:17.537Z,1.50
2018-09-15T00:25:46.792Z,1.57
2018-09-15T00:28:15.625Z,1.70
2018-09-15T00:30:44.426Z,1.33
2018-09-15T00:33:14.084Z,1.60
2018-09-15T00:35:42.912Z,1.40
2018-09-15T00:38:11.753Z,1.73
2018-09-15T00:40:40.553Z,2.00
2018-09-15T00:43:09.384Z,1.37
2018-09-15T00:45:38.161Z,1.70
2018-09-15T00:48:06.971Z,1.53
2018-09-15T00:50:35.792Z,1.47
2018-09-15T00:53:04.588Z,1.43
2018-09-15T00:55:33.388Z,1.77
2018-09-15T00:58:02.256Z,1.30
2018-09-15T01:00:31.081Z,1.50
2018-09-15T01:03:00.004Z,1.40
2018-09-15T01:05:28.788Z,2.00
2018-09-15T01:07:57.590Z,1.37
2018-09-15T01:10:26.384Z,2.00
2018-09-15T01:12:56.321Z,1.97
2018-09-15T01:15:25.140Z,1.67
2018-09-15T01:17:54.786Z,1.60
2018-09-15T01:20:23.578Z,1.60
2018-09-15T01:22:52.362Z,1.57
2018-09-15T01:25:21.216Z,1.63
2018-09-15T01:27:50.356Z,1.60
2018-09-15T01:30:19.212Z,1.47
2018-09-15T01:32:48.033Z,1.70
2018-09-15T01:35:16.820Z,1.60
2018-09-15T01:37:45.639Z,1.90
2018-09-15T01:40:14.467Z,2.10
2018-09-15T01:42:43.256Z,1.73
2018-09-15T01:45:12.074Z,1.40
2018-09-15T01:47:40.888Z,2.20
2018-09-15T01:50:09.705Z,1.63
2018-09-15T01:52:38.496Z,1.70
2018-09-15T01:55:07.311Z,1.90
2018-09-15T01:57:36.169Z,2.23
2018-09-15T02:00:04.955Z,1.40
2018-09-15T02:02:33.772Z,1.70
2018-09-15T02:05:02.566Z,1.83
2018-09-15T02:07:31.397Z,1.97
2018-09-15T02:10:00.560Z,1.93
2018-09-15T02:12:29.691Z,1.50
2018-09-15T02:14:59.231Z,1.63
2018-09-15T02:17:28.041Z,2.00
2018-09-15T02:19:56.884Z,1.83
2018-09-15T02:22:25.686Z,2.07
2018-09-15T02:24:54.482Z,1.53
2018-09-15T02:27:23.284Z,1.80
2018-09-15T02:29:52.073Z,2.03
2018-09-15T02:32:20.889Z,2.23
2018-09-15T02:34:49.720Z,1.73
2018-09-15T02:37:18.516Z,2.20
2018-09-15T02:39:47.357Z,2.93
2018-09-15T02:42:16.196Z,2.03
2018-09-15T02:44:44.984Z,2.03
2018-09-15T02:47:14.170Z,2.17
2018-09-15T02:49:43.074Z,2.00
2018-09-15T02:52:12.528Z,2.30
2018-09-15T02:54:41.395Z,2.50
2018-09-15T02:57:10.204Z,2.23
2018-09-15T02:59:39.031Z,2.70
2018-09-15T03:02:07.829Z,2.10
2018-09-15T03:04:36.679Z,2.00
2018-09-15T03:07:05.508Z,2.03
2018-09-15T03:09:34.296Z,1.93
2018-09-15T03:12:03.101Z,2.33
2018-09-15T03:14:32.577Z,1.80
2018-09-15T03:17:01.417Z,2.27
2018-09-15T03:19:30.956Z,2.57
2018-09-15T03:21:59.752Z,2.10
2018-09-15T03:24:28.568Z,2.93
2018-09-15T03:26:57.393Z,2.30
2018-09-15T03:29:26.799Z,2.23
2018-09-15T03:31:55.631Z,2.30
2018-09-15T03:34:24.408Z,2.50
2018-09-15T03:36:53.293Z,2.30
2018-09-15T03:39:22.146Z,2.17
2018-09-15T03:41:51.018Z,2.00
2018-09-15T03:44:19.740Z,2.47
2018-09-15T03:46:48.602Z,2.30
2018-09-15T03:49:17.392Z,2.00
2018-09-15T03:51:46.210Z,2.33
2018-09-15T03:54:16.200Z,2.63
2018-09-15T03:56:44.985Z,2.17
2018-09-15T03:59:13.916Z,2.13
2018-09-15T04:01:42.728Z,2.53
2018-09-15T04:04:11.599Z,2.40
2018-09-15T04:06:40.496Z,2.23
2018-09-15T04:09:10.685Z,2.20
2018-09-15T04:11:39.689Z,2.50
2018-09-15T04:14:08.876Z,2.50
2018-09-15T04:16:37.755Z,2.30
2018-09-15T04:19:06.567Z,2.90
2018-09-15T04:21:35.948Z,2.70
2018-09-15T04:24:04.797Z,2.53
2018-09-15T04:26:33.584Z,2.47
2018-09-15T04:29:02.378Z,2.20
2018-09-15T04:31:31.165Z,2.50
2018-09-15T04:34:00.030Z,2.23
2018-09-15T04:36:28.856Z,2.60
2018-09-15T04:38:57.737Z,2.60
2018-09-15T04:41:26.526Z,2.70
2018-09-15T04:43:55.356Z,2.60
2018-09-15T04:46:24.152Z,2.40
2018-09-15T04:48:52.969Z,3.20
2018-09-15T04:51:22.324Z,2.73
2018-09-15T04:53:51.136Z,2.27
2018-09-15T04:56:19.946Z,2.30
2018-09-15T04:58:48.782Z,1.97
2018-09-15T05:01:17.633Z,2.87
2018-09-15T05:06:21.966Z,2.80
2018-09-15T05:08:50.761Z,2.30
2018-09-15T05:11:19.612Z,2.87
2018-09-15T05:13:48.412Z,2.60
2018-09-15T05:16:17.208Z,2.33
2018-09-15T05:18:46.022Z,3.47
2018-09-15T05:21:14.835Z,2.50
2018-09-15T05:23:44.228Z,2.00
2018-09-15T05:26:13.028Z,2.37
2018-09-15T05:28:41.832Z,2.60
2018-09-15T05:31:11.841Z,2.53
2018-09-15T05:33:40.640Z,2.30
2018-09-15T05:36:09.416Z,2.53
2018-09-15T05:38:38.252Z,2.43
2018-09-15T05:41:07.052Z,3.03
2018-09-15T05:43:35.862Z,2.47
2018-09-15T05:46:04.676Z,2.30
2018-09-15T05:48:33.460Z,2.20
2018-09-15T05:51:02.292Z,2.20
2018-09-15T05:53:31.092Z,1.97
2018-09-15T05:55:59.944Z,2.37
2018-09-15T05:58:28.757Z,2.70
2018-09-15T06:00:57.642Z,2.60
2018-09-15T06:03:26.446Z,2.20
2018-09-15T06:05:55.236Z,1.83
2018-09-15T06:08:24.084Z,2.40
2018-09-15T06:10:52.872Z,1.80
2018-09-15T06:13:21.676Z,1.90
2018-09-15T06:15:50.500Z,2.93
2018-09-15T06:18:19.315Z,1.83
2018-09-15T06:20:48.137Z,1.63
2018-09-15T06:23:16.969Z,1.60
2018-09-15T06:25:45.916Z,1.50
2018-09-15T06:28:14.745Z,1.80
2018-09-15T06:30:43.597Z,1.47
2018-09-15T06:33:12.461Z,1.50
2018-09-15T06:35:41.324Z,1.90
2018-09-15T06:38:10.176Z,1.90
2018-09-15T06:40:38.969Z,1.90
2018-09-15T06:43:07.801Z,2.77
2018-09-15T06:45:36.675Z,1.97
2018-09-15T06:48:05.480Z,1.70
2018-09-15T06:50:34.320Z,1.57
2018-09-15T06:53:03.191Z,2.13
2018-09-15T06:55:32.027Z,1.57
2018-09-15T06:58:00.832Z,1.60
2018-09-15T07:00:29.628Z,2.10
2018-09-15T07:02:58.586Z,1.57
2018-09-15T07:05:27.407Z,2.40
2018-09-15T07:07:56.192Z,2.33
2018-09-15T07:10:25.044Z,1.50
2018-09-15T07:12:54.002Z,1.80
2018-09-15T07:15:22.764Z,1.73
2018-09-15T07:17:51.965Z,1.93
2018-09-15T07:20:20.754Z,1.77
2018-09-15T07:22:49.648Z,1.67
2018-09-15T07:25:19.296Z,1.80
2018-09-15T07:27:48.168Z,1.93
2018-09-15T07:30:16.954Z,1.97
2018-09-15T07:32:45.760Z,1.33
2018-09-15T07:35:14.584Z,2.10
2018-09-15T07:37:43.465Z,1.57
2018-09-15T07:40:12.274Z,1.70
2018-09-15T07:42:42.336Z,1.60
2018-09-15T07:45:11.158Z,1.77
2018-09-15T07:47:39.987Z,2.10
2018-09-15T07:50:08.791Z,2.10
2018-09-15T07:52:37.589Z,1.67
2018-09-15T07:55:06.436Z,2.00
2018-09-15T07:57:35.372Z,1.83
2018-09-15T08:00:04.161Z,1.90
2018-09-15T08:02:33.005Z,1.40
2018-09-15T08:05:01.901Z,1.87
2018-09-15T08:07:30.761Z,1.83
2018-09-15T08:09:59.864Z,2.50
2018-09-15T08:12:28.713Z,1.90
2018-09-15T08:14:57.570Z,1.90
2018-09-15T08:17:26.425Z,1.90
2018-09-15T08:19:55.220Z,2.20
2018-09-15T08:22:24.033Z,1.63
2018-09-15T08:24:52.896Z,1.93
2018-09-15T08:27:21.797Z,2.43
2018-09-15T08:29:50.747Z,1.80
2018-09-15T08:32:19.565Z,1.83
2018-09-15T08:34:48.452Z,1.87
2018-09-15T08:37:17.629Z,1.90
2018-09-15T08:39:46.443Z,1.93
2018-09-15T08:42:15.374Z,2.10
2018-09-15T08:44:44.416Z,2.20
2018-09-15T08:47:13.337Z,2.20
2018-09-15T08:49:42.228Z,1.70
2018-09-15T08:52:11.085Z,1.93
2018-09-15T08:54:39.868Z,2.07
2018-09-15T08:57:08.672Z,1.60
2018-09-15T08:59:37.592Z,1.60
2018-09-15T09:02:10.781Z,1.83
2018-09-15T09:04:39.600Z,1.53
2018-09-15T09:07:08.461Z,1.87
2018-09-15T09:09:37.333Z,2.00
2018-09-15T09:12:06.368Z,2.03
2018-09-15T09:14:36.809Z,1.70
2018-09-15T09:17:05.704Z,2.40
2018-09-15T09:19:34.584Z,1.90
2018-09-15T09:22:03.473Z,1.70
2018-09-15T09:24:32.341Z,1.77
2018-09-15T09:27:01.224Z,1.73
2018-09-15T09:29:30.062Z,1.53
2018-09-15T09:31:58.909Z,2.13
2018-09-15T09:34:27.724Z,1.53
2018-09-15T09:36:56.669Z,1.60
2018-09-15T09:39:25.557Z,1.53
2018-09-15T09:41:54.429Z,1.70
2018-09-15T09:44:23.237Z,1.77
2018-09-15T09:46:52.601Z,1.60
2018-09-15T09:49:21.408Z,1.57
2018-09-15T09:51:50.228Z,2.17
2018-09-15T09:54:19.038Z,1.40
2018-09-15T09:56:47.878Z,1.60
2018-09-15T09:59:16.823Z,1.30
2018-09-15T10:01:50.968Z,2.13
2018-09-15T10:04:19.833Z,1.57
2018-09-15T10:06:48.692Z,2.00
2018-09-15T10:09:17.519Z,1.60
2018-09-15T10:11:46.429Z,1.40
2018-09-15T10:14:15.292Z,1.50
2018-09-15T10:16:44.159Z,1.40
2018-09-15T10:19:13.744Z,1.67
2018-09-15T10:21:42.659Z,1.90
2018-09-15T10:24:11.745Z,1.47
2018-09-15T10:26:41.725Z,1.87
2018-09-15T10:29:10.587Z,1.47
2018-09-15T10:31:39.557Z,2.00
2018-09-15T10:34:08.504Z,1.70
2018-09-15T10:36:37.301Z,1.50
2018-09-15T10:39:07.309Z,1.80
2018-09-15T10:41:36.096Z,1.40
2018-09-15T10:44:05.128Z,2.00
2018-09-15T10:46:34.182Z,1.90
2018-09-15T10:49:03.473Z,2.53
2018-09-15T10:51:32.443Z,1.83
2018-09-15T10:54:01.296Z,1.80
2018-09-15T10:56:30.204Z,2.17
2018-09-15T10:58:59.084Z,1.70
2018-09-15T11:01:27.932Z,1.73
2018-09-15T11:03:56.836Z,1.50
2018-09-15T11:06:25.744Z,1.83
2018-09-15T11:08:54.660Z,1.53
2018-09-15T11:11:23.516Z,1.73
2018-09-15T11:13:52.404Z,1.47
2018-09-15T11:16:21.377Z,1.57
2018-09-15T11:18:50.195Z,1.53
2018-09-15T11:21:19.092Z,2.20
2018-09-15T11:23:49.313Z,1.70
2018-09-15T11:26:18.508Z,2.13
2018-09-15T11:28:49.328Z,2.00
2018-09-15T11:31:21.352Z,1.53
2018-09-15T11:33:50.196Z,1.63
2018-09-15T11:36:19.064Z,1.50
2018-09-15T11:38:47.852Z,2.17
2018-09-15T11:41:16.737Z,1.40
2018-09-15T11:43:45.575Z,1.80
2018-09-15T11:46:14.391Z,2.10
2018-09-15T11:48:43.196Z,1.67
2018-09-15T11:51:12.599Z,1.50
2018-09-15T11:53:41.729Z,1.93
2018-09-15T11:56:10.494Z,2.07
2018-09-15T11:58:39.356Z,2.33
2018-09-15T12:01:08.218Z,1.97
2018-09-15T12:03:37.036Z,1.80
2018-09-15T12:06:07.466Z,1.73
2018-09-15T12:08:36.534Z,1.90
2018-09-15T12:11:05.396Z,2.17
2018-09-15T12:13:34.252Z,1.50
2018-09-15T12:16:03.104Z,1.67
2018-09-15T12:18:31.907Z,1.70
2018-09-15T12:21:00.781Z,1.60
2018-09-15T12:23:29.579Z,2.20
2018-09-15T12:25:58.408Z,1.90
2018-09-15T12:28:27.227Z,2.00
2018-09-15T12:30:56.244Z,1.63
2018-09-15T12:33:25.811Z,1.50
2018-09-15T12:35:54.660Z,1.80
2018-09-15T12:38:23.516Z,1.73
2018-09-15T12:40:52.320Z,1.57
2018-09-15T12:43:21.164Z,1.77
2018-09-15T12:45:50.015Z,1.50
2018-09-15T12:48:18.908Z,1.67
2018-09-15T12:50:47.753Z,1.60
2018-09-15T12:53:16.651Z,1.57
2018-09-15T12:55:45.676Z,1.63
2018-09-15T12:58:14.560Z,1.77
2018-09-15T13:00:43.594Z,1.53
2018-09-15T13:03:12.392Z,1.70
2018-09-15T13:05:41.240Z,2.27
2018-09-15T13:08:10.109Z,1.87
2018-09-15T13:10:38.972Z,1.37
2018-09-15T13:13:07.900Z,1.67
2018-09-15T13:15:36.882Z,2.03
2018-09-15T13:18:05.706Z,1.70
2018-09-15T13:20:34.533Z,1.60
2018-09-15T13:23:03.425Z,1.70
2018-09-15T13:25:32.272Z,1.57
2018-09-15T13:28:01.112Z,1.93
2018-09-15T13:30:29.993Z,1.90
2018-09-15T13:32:59.123Z,1.40
2018-09-15T13:35:27.977Z,1.60
2018-09-15T13:37:56.903Z,1.50
2018-09-15T13:40:25.772Z,1.60
2018-09-15T13:42:54.596Z,1.63
2018-09-15T13:45:23.453Z,1.87
2018-09-15T13:47:52.437Z,1.57
2018-09-15T13:50:21.290Z,1.73
2018-09-15T13:52:50.076Z,1.37
2018-09-15T13:55:18.956Z,1.70
2018-09-15T13:57:47.977Z,1.80
2018-09-15T14:00:16.852Z,1.90
2018-09-15T14:02:45.676Z,1.30
2018-09-15T14:05:15.038Z,1.70
2018-09-15T14:07:43.882Z,1.70
2018-09-15T14:10:19.008Z,2.10
2018-09-15T14:12:41.965Z,1.93
2018-09-15T14:15:11.251Z,1.80
2018-09-15T14:17:40.204Z,1.70
2018-09-15T14:20:10.216Z,1.17
2018-09-15T14:22:39.093Z,1.50
2018-09-15T14:25:07.977Z,1.97
2018-09-15T14:27:36.793Z,1.97
2018-09-15T14:30:05.820Z,1.70
2018-09-15T14:32:34.649Z,2.03
2018-09-15T14:35:03.681Z,1.53
2018-09-15T14:37:32.696Z,1.67
2018-09-15T14:40:01.620Z,1.63
2018-09-15T14:42:30.501Z,1.60
2018-09-15T14:44:59.404Z,1.83
2018-09-15T14:47:28.228Z,1.70
2018-09-15T14:49:57.013Z,2.07
2018-09-15T14:52:25.864Z,1.70
2018-09-15T14:54:55.089Z,1.43
2018-09-15T14:57:23.969Z,1.80
2018-09-15T14:59:52.757Z,1.47
2018-09-15T15:02:21.556Z,1.60
2018-09-15T15:04:50.332Z,2.57
2018-09-15T15:07:19.312Z,1.93
2018-09-15T15:09:48.250Z,1.80
2018-09-15T15:12:17.120Z,2.00
2018-09-15T15:14:45.980Z,1.50
2018-09-15T15:17:14.925Z,1.50
2018-09-15T15:19:43.772Z,1.67
2018-09-15T15:22:12.641Z,2.67
2018-09-15T15:24:41.436Z,1.70
2018-09-15T15:27:10.268Z,1.93
2018-09-15T15:29:39.123Z,1.60
2018-09-15T15:32:08.003Z,1.50
2018-09-15T15:34:36.904Z,1.60
2018-09-15T15:37:05.808Z,1.70
2018-09-15T15:39:34.676Z,1.80
2018-09-15T15:42:03.566Z,2.43
2018-09-15T15:44:32.462Z,1.80
2018-09-15T15:47:01.349Z,1.93
2018-09-15T15:49:30.306Z,1.60
2018-09-15T15:51:59.248Z,1.60
2018-09-15T15:54:28.076Z,1.30
2018-09-15T15:56:57.034Z,2.10
2018-09-15T15:59:25.869Z,1.50
2018-09-15T16:01:54.822Z,1.60
2018-09-15T16:04:24.589Z,3.33
2018-09-15T16:06:53.380Z,1.60
2018-09-15T16:09:22.301Z,1.37
2018-09-15T16:11:51.198Z,1.80
2018-09-15T16:14:20.021Z,1.30
2018-09-15T16:16:48.841Z,1.73
2018-09-15T16:19:17.644Z,1.77
2018-09-15T16:21:46.518Z,1.50
2018-09-15T16:24:15.338Z,1.70
2018-09-15T16:26:44.140Z,2.40
2018-09-15T16:29:13.005Z,1.50
2018-09-15T16:31:41.788Z,1.90
2018-09-15T16:34:10.585Z,1.53
2018-09-15T16:36:39.428Z,1.63
2018-09-15T16:39:09.166Z,1.60
2018-09-15T16:41:38.340Z,1.80
2018-09-15T16:44:07.434Z,1.50
2018-09-15T16:46:36.732Z,1.80
2018-09-15T16:49:06.402Z,1.20
2018-09-15T16:51:35.176Z,1.63
2018-09-15T16:54:04.638Z,1.77
2018-09-15T16:56:33.482Z,2.27
2018-09-15T16:59:02.879Z,2.13
2018-09-15T17:01:31.840Z,2.30
2018-09-15T17:04:00.676Z,2.23
2018-09-15T17:06:29.616Z,2.30
2018-09-15T17:08:58.440Z,2.07
2018-09-15T17:11:27.256Z,4.10
2018-09-15T17:13:56.045Z,2.10
2018-09-15T17:16:24.883Z,1.67
2018-09-15T17:18:53.728Z,1.80
2018-09-15T17:21:22.517Z,1.77
2018-09-15T17:23:51.385Z,1.63
2018-09-15T17:26:20.166Z,1.87
2018-09-15T17:28:49.023Z,1.63
2018-09-15T17:31:17.825Z,2.20
2018-09-15T17:33:46.703Z,2.83
2018-09-15T17:36:15.535Z,1.87
2018-09-15T17:38:44.351Z,2.23
2018-09-15T17:41:13.165Z,1.80
2018-09-15T17:43:41.975Z,1.93
2018-09-15T17:46:10.796Z,2.10
2018-09-15T17:48:40.348Z,1.53
2018-09-15T17:51:09.288Z,2.03
2018-09-15T17:53:38.152Z,1.70
2018-09-15T17:56:07.092Z,1.70
2018-09-15T17:58:36.037Z,1.97
2018-09-15T18:01:04.851Z,2.03
2018-09-15T18:03:33.835Z,1.90
2018-09-15T18:06:02.630Z,2.27
2018-09-15T18:08:31.457Z,1.77
2018-09-15T18:11:00.329Z,2.07
2018-09-15T18:13:29.139Z,1.77
2018-09-15T18:15:58.013Z,2.07
2018-09-15T18:18:27.792Z,2.00
2018-09-15T18:20:56.790Z,2.37
2018-09-15T18:23:25.772Z,1.90
2018-09-15T18:25:54.620Z,2.00
2018-09-15T18:28:23.525Z,1.80
2018-09-15T18:30:52.411Z,1.93
2018-09-15T18:33:21.266Z,1.77
2018-09-15T18:35:50.142Z,1.77
2018-09-15T18:38:18.975Z,2.20
2018-09-15T18:40:47.816Z,1.87
2018-09-15T18:43:16.761Z,1.77
2018-09-15T18:45:45.676Z,2.10
2018-09-15T18:48:14.551Z,2.17
2018-09-15T18:50:43.478Z,2.17
2018-09-15T18:53:13.526Z,1.90
2018-09-15T18:55:42.349Z,2.13
2018-09-15T18:58:11.369Z,1.90
2018-09-15T19:00:40.345Z,2.27
2018-09-15T19:03:13.491Z,2.60
2018-09-15T19:05:42.501Z,1.73
2018-09-15T19:08:11.420Z,2.50
2018-09-15T19:10:41.402Z,1.97
2018-09-15T19:13:10.477Z,1.83
2018-09-15T19:15:39.316Z,2.20
2018-09-15T19:18:08.195Z,2.10
2018-09-15T19:20:37.000Z,2.53
2018-09-15T19:23:06.021Z,2.13
2018-09-15T19:25:34.881Z,1.90
2018-09-15T19:28:03.720Z,2.63
2018-09-15T19:30:32.596Z,2.40
2018-09-15T19:33:01.465Z,1.97
2018-09-15T19:35:30.657Z,2.60
2018-09-15T19:37:59.441Z,1.90
2018-09-15T19:40:28.284Z,2.20
2018-09-15T19:42:57.149Z,1.97
2018-09-15T19:45:25.961Z,1.93
2018-09-15T19:47:54.778Z,1.87
2018-09-15T19:50:23.652Z,2.10
2018-09-15T19:52:52.484Z,2.03
2018-09-15T19:55:21.365Z,2.10
2018-09-15T19:57:50.239Z,2.00
2018-09-15T20:00:19.047Z,2.53
2018-09-15T20:02:47.841Z,2.13
2018-09-15T20:05:17.369Z,2.67
2018-09-15T20:07:46.626Z,2.10
2018-09-15T20:10:15.429Z,2.00
2018-09-15T20:12:44.334Z,1.90
2018-09-15T20:15:18.588Z,2.30
2018-09-15T20:17:46.781Z,2.23
2018-09-15T20:20:14.965Z,2.37
2018-09-15T20:22:44.392Z,2.60
2018-09-15T20:25:13.309Z,2.33
2018-09-15T20:27:42.110Z,1.80
2018-09-15T20:30:10.966Z,2.00
2018-09-15T20:32:39.847Z,2.10
2018-09-15T20:35:09.004Z,2.13
2018-09-15T20:37:38.665Z,1.93
2018-09-15T20:40:07.992Z,2.30
2018-09-15T20:42:37.249Z,2.80
2018-09-15T20:45:06.406Z,2.30
2018-09-15T20:47:35.282Z,2.83
2018-09-15T20:50:04.178Z,3.33
2018-09-15T20:52:33.033Z,3.13
2018-09-15T20:55:02.647Z,3.23
2018-09-15T20:57:31.433Z,3.03
2018-09-15T21:00:00.276Z,2.50
2018-09-15T21:02:29.072Z,3.10
2018-09-15T21:04:57.925Z,2.97
2018-09-15T21:07:26.744Z,2.30
2018-09-15T21:09:55.540Z,2.97
2018-09-15T21:12:24.371Z,2.80
2018-09-15T21:14:53.193Z,2.80
2018-09-15T21:17:22.044Z,2.70
2018-09-15T21:19:50.875Z,3.13
2018-09-15T21:22:19.700Z,2.20
2018-09-15T21:24:48.572Z,1.97
2018-09-15T21:27:17.376Z,2.07
2018-09-15T21:29:46.193Z,2.17
2018-09-15T21:32:15.139Z,2.30
2018-09-15T21:34:43.950Z,2.03
2018-09-15T21:37:12.735Z,2.27
2018-09-15T21:39:41.536Z,2.20
2018-09-15T21:42:10.357Z,2.23
2018-09-15T21:44:39.318Z,2.33
2018-09-15T21:47:08.165Z,2.37
2018-09-15T21:49:36.993Z,2.10
2018-09-15T21:52:06.360Z,2.57
2018-09-15T21:54:35.150Z,2.20
2018-09-15T21:57:03.976Z,2.30
2018-09-15T21:59:32.844Z,2.10
2018-09-15T22:02:01.696Z,2.10
2018-09-15T22:04:30.549Z,2.20
2018-09-15T22:06:59.336Z,2.10
2018-09-15T22:09:28.167Z,2.63
2018-09-15T22:11:57.029Z,2.30
2018-09-15T22:14:25.838Z,3.00
2018-09-15T22:16:54.632Z,3.00
2018-09-15T22:19:23.925Z,2.30
2018-09-15T22:21:52.720Z,2.50
2018-09-15T22:24:21.516Z,2.73
2018-09-15T22:26:50.321Z,2.43
2018-09-15T22:29:19.153Z,2.70
2018-09-15T22:31:47.981Z,2.90
2018-09-15T22:34:16.793Z,2.33
2018-09-15T22:36:45.620Z,2.60
2018-09-15T22:39:14.408Z,2.80
2018-09-15T22:41:43.246Z,2.73
2018-09-15T22:44:12.137Z,2.63
2018-09-15T22:46:40.929Z,2.73
2018-09-15T22:49:09.788Z,2.40
2018-09-15T22:51:38.599Z,2.87
2018-09-15T22:54:07.396Z,2.70
2018-09-15T22:56:36.204Z,2.90
2018-09-15T22:59:05.000Z,2.77
2018-09-15T23:01:33.890Z,2.90
2018-09-15T23:04:07.869Z,2.60
2018-09-15T23:06:36.696Z,3.30
2018-09-15T23:09:06.613Z,2.83
2018-09-15T23:11:35.470Z,2.50
2018-09-15T23:14:04.544Z,2.67
2018-09-15T23:16:33.329Z,3.17
2018-09-15T23:19:02.265Z,2.60
2018-09-15T23:21:31.040Z,2.80
2018-09-15T23:23:59.936Z,3.30
2018-09-15T23:26:28.843Z,3.40
2018-09-15T23:28:57.681Z,3.30
2018-09-15T23:31:26.531Z,2.90
2018-09-15T23:33:55.360Z,2.80
2018-09-15T23:36:24.149Z,2.93
2018-09-15T23:38:52.973Z,3.10
2018-09-15T23:41:21.764Z,2.60
2018-09-15T23:43:50.584Z,3.37
2018-09-15T23:46:19.444Z,2.47
2018-09-15T23:48:48.240Z,3.33
2018-09-15T23:51:17.024Z,3.23
2018-09-15T23:53:45.843Z,2.80
2018-09-15T23:56:14.640Z,3.20
2018-09-15T23:58:43.492Z,3.10
